Time;durP1;ratioP1;P1;durP2;ratioP2;P2;SDS_P1;SDS_P2;PMS_P1;PMS_P2;Temp;Humidity;BMP_temperature;BMP_pressure;BME280_temperature;BME280_humidity;BME280_pressure;Samples;Min_cycle;Max_cycle;Signal;HPM_P1;HPM_P2
2022/11/16 00:00:33;;;;;;;;;0.00;0.00;;;;;;;;4728769;30;28411;-94
2022/11/16 00:03:02;;;;;;;;;0.00;0.00;;;;;;;;4719016;30;30128;-94
2022/11/16 00:05:28;;;;;;;;;0.00;0.00;;;;;;;;4718603;30;28550;-94
2022/11/16 00:07:53;;;;;;;;;0.00;0.00;;;;;;;;4718870;30;28503;-94
2022/11/16 00:10:18;;;;;;;;;0.00;0.00;;;;;;;;4718888;30;28102;-94
2022/11/16 00:12:43;;;;;;;;;0.00;0.00;;;;;;;;4718313;30;30189;-95
2022/11/16 00:15:09;;;;;;;;;0.00;0.00;;;;;;;;4731166;30;28798;-94
2022/11/16 00:17:34;;;;;;;;;0.00;0.00;;;;;;;;4736195;30;28501;-94
2022/11/16 00:19:59;;;;;;;;;0.00;0.00;;;;;;;;4735917;30;28838;-94
2022/11/16 00:22:24;;;;;;;;;0.00;0.00;;;;;;;;4735628;30;29957;-94
2022/11/16 00:24:49;;;;;;;;;0.00;0.00;;;;;;;;4736368;30;29126;-93
2022/11/16 00:27:14;;;;;;;;;0.00;0.00;;;;;;;;4734336;30;28495;-94
2022/11/16 00:29:40;;;;;;;;;0.00;0.00;;;;;;;;4717803;30;28360;-94
2022/11/16 00:32:05;;;;;;;;;0.00;0.00;;;;;;;;4733459;30;31252;-94
2022/11/16 00:34:30;;;;;;;;;0.00;0.00;;;;;;;;4730280;30;28438;-94
2022/11/16 00:36:55;;;;;;;;;0.00;0.00;;;;;;;;4718496;30;28533;-93
2022/11/16 00:39:21;;;;;;;;;3.00;3.00;;;;;;;;4718572;30;28051;-93
2022/11/16 00:41:46;;;;;;;;;0.00;0.00;;;;;;;;4717642;30;31458;-94
2022/11/16 00:44:12;;;;;;;;;0.00;0.00;;;;;;;;4717241;30;28537;-93
2022/11/16 00:46:37;;;;;;;;;0.00;0.00;;;;;;;;4717451;30;28392;-94
2022/11/16 00:49:04;;;;;;;;;0.00;0.00;;;;;;;;4721947;30;28575;-94
2022/11/16 00:51:29;;;;;;;;;0.00;0.00;;;;;;;;4735153;30;30412;-94
2022/11/16 00:53:54;;;;;;;;;0.00;0.00;;;;;;;;4735579;30;28649;-95
2022/11/16 00:56:19;;;;;;;;;0.00;0.00;;;;;;;;4735746;30;28461;-93
2022/11/16 00:58:45;;;;;;;;;0.00;0.00;;;;;;;;4735648;30;27826;-94
2022/11/16 01:01:10;;;;;;;;;0.00;0.00;;;;;;;;4718850;30;30955;-95
2022/11/16 01:03:36;;;;;;;;;0.00;0.00;;;;;;;;4717690;30;28481;-94
2022/11/16 01:06:02;;;;;;;;;0.00;0.00;;;;;;;;4717688;30;28428;-94
2022/11/16 01:08:27;;;;;;;;;0.00;0.00;;;;;;;;4717527;30;28493;-94
2022/11/16 01:10:53;;;;;;;;;0.00;0.00;;;;;;;;4717861;30;29975;-94
2022/11/16 01:13:18;;;;;;;;;0.00;0.00;;;;;;;;4717393;30;28754;-94
2022/11/16 01:15:46;;;;;;;;;0.00;0.00;;;;;;;;4717666;30;28379;-95
2022/11/16 01:18:11;;;;;;;;;0.00;0.00;;;;;;;;4717379;30;28398;-94
2022/11/16 01:20:39;;;;;;;;;0.00;0.00;;;;;;;;4717090;30;30082;-94
2022/11/16 01:23:04;;;;;;;;;0.00;0.00;;;;;;;;4717025;30;29532;-93
2022/11/16 01:25:29;;;;;;;;;0.00;0.00;;;;;;;;4717632;30;38218;-93
2022/11/16 01:27:54;;;;;;;;;0.00;0.00;;;;;;;;4716500;30;44768;-93
2022/11/16 01:30:19;;;;;;;;;0.00;0.00;;;;;;;;4717359;30;30088;-94
2022/11/16 01:32:44;;;;;;;;;0.00;0.00;;;;;;;;4717329;30;28432;-93
2022/11/16 01:35:14;;;;;;;;;0.00;0.00;;;;;;;;4717197;30;27759;-93
2022/11/16 01:37:39;;;;;;;;;0.00;0.00;;;;;;;;4717464;30;28431;-92
2022/11/16 01:40:05;;;;;;;;;0.00;0.00;;;;;;;;4717272;30;31141;-94
2022/11/16 01:42:32;;;;;;;;;0.00;0.00;;;;;;;;4716895;30;28969;-94
2022/11/16 01:45:17;;;;;;;;;0.00;0.00;;;;;;;;4717240;30;28493;-93
2022/11/16 01:47:43;;;;;;;;;0.00;0.00;;;;;;;;4734072;30;28592;-93
2022/11/16 01:50:10;;;;;;;;;0.00;0.00;;;;;;;;4734590;30;29927;-93
2022/11/16 01:52:38;;;;;;;;;0.00;0.00;;;;;;;;4734376;30;28773;-93
2022/11/16 01:55:03;;;;;;;;;0.00;0.00;;;;;;;;4733987;30;28595;-93
2022/11/16 01:57:34;;;;;;;;;0.00;0.00;;;;;;;;4733543;30;28669;-94
2022/11/16 02:00:00;;;;;;;;;0.00;0.00;;;;;;;;4734483;30;29904;-94
2022/11/16 02:02:26;;;;;;;;;0.00;0.00;;;;;;;;4734587;30;28808;-94
2022/11/16 02:04:52;;;;;;;;;0.00;0.00;;;;;;;;4734235;30;28502;-93
2022/11/16 02:09:52;;;;;;;;;0.00;0.00;;;;;;;;4734330;30;28524;-94
2022/11/16 02:10:28;;;;;;;;;3.00;3.00;;;;;;;;4749967;30;28340;-94
2022/11/16 02:13:10;;;;;;;;;0.00;0.00;;;;;;;;4720495;30;28788;-94
2022/11/16 02:15:41;;;;;;;;;0.00;0.00;;;;;;;;4716682;30;27866;-94
2022/11/16 02:18:06;;;;;;;;;0.00;0.00;;;;;;;;4732534;30;28560;-93
2022/11/16 02:20:35;;;;;;;;;0.00;0.00;;;;;;;;4716098;30;30722;-94
2022/11/16 02:23:14;;;;;;;;;0.00;0.00;;;;;;;;4716335;30;28512;-94
2022/11/16 02:25:43;;;;;;;;;0.00;0.00;;;;;;;;4716358;30;27796;-94
2022/11/16 02:28:15;;;;;;;;;0.00;0.00;;;;;;;;4716446;30;28529;-94
2022/11/16 02:30:43;;;;;;;;;0.00;0.00;;;;;;;;4715697;30;30092;-93
2022/11/16 02:33:10;;;;;;;;;0.00;0.00;;;;;;;;4716246;30;28525;-94
2022/11/16 02:35:39;;;;;;;;;0.00;0.00;;;;;;;;4716284;30;28462;-94
2022/11/16 02:38:08;;;;;;;;;0.00;0.00;;;;;;;;4716429;30;28526;-93
2022/11/16 02:40:34;;;;;;;;;0.00;0.00;;;;;;;;4716241;30;31555;-93
2022/11/16 02:43:04;;;;;;;;;0.00;0.00;;;;;;;;4733710;30;28955;-93
2022/11/16 02:45:32;;;;;;;;;0.00;0.00;;;;;;;;4733950;30;28415;-93
2022/11/16 02:48:00;;;;;;;;;0.00;0.00;;;;;;;;4734134;30;28571;-94
2022/11/16 02:50:26;;;;;;;;;0.00;0.00;;;;;;;;4733400;30;29886;-93
2022/11/16 02:52:51;;;;;;;;;0.00;0.00;;;;;;;;4719815;30;28752;-94
2022/11/16 02:55:16;;;;;;;;;0.00;0.00;;;;;;;;4716240;30;28511;-93
2022/11/16 02:57:53;;;;;;;;;0.00;0.00;;;;;;;;4716506;30;28521;-94
2022/11/16 03:00:21;;;;;;;;;0.00;0.00;;;;;;;;4716202;30;31582;-94
2022/11/16 03:02:52;;;;;;;;;0.00;0.00;;;;;;;;4716530;30;28888;-94
2022/11/16 03:05:30;;;;;;;;;0.00;0.00;;;;;;;;4715864;30;28408;-93
2022/11/16 03:08:00;;;;;;;;;0.00;0.00;;;;;;;;4716546;30;28503;-93
2022/11/16 03:13:11;;;;;;;;;0.00;0.00;;;;;;;;4752940;30;28604;-93
2022/11/16 03:15:38;;;;;;;;;0.00;0.00;;;;;;;;4736824;30;28510;-93
2022/11/16 03:18:05;;;;;;;;;0.00;0.00;;;;;;;;4736809;30;28569;-94
2022/11/16 03:20:32;;;;;;;;;0.00;0.00;;;;;;;;4736071;30;30002;-92
2022/11/16 03:23:02;;;;;;;;;0.00;0.00;;;;;;;;4751282;30;28748;-93
2022/11/16 03:25:34;;;;;;;;;0.00;0.00;;;;;;;;4736510;30;28433;-93
2022/11/16 03:28:00;;;;;;;;;0.00;0.00;;;;;;;;4729275;30;28500;-94
2022/11/16 03:30:27;;;;;;;;;0.00;0.00;;;;;;;;4718850;30;29766;-93
2022/11/16 03:33:11;;;;;;;;;0.00;0.00;;;;;;;;4719138;30;29893;-94
2022/11/16 03:35:48;;;;;;;;;0.00;0.00;;;;;;;;4718713;30;28502;-94
2022/11/16 03:38:14;;;;;;;;;0.00;0.00;;;;;;;;4719158;30;28529;-94
2022/11/16 03:40:42;;;;;;;;;0.00;0.00;;;;;;;;4718703;30;30092;-94
2022/11/16 03:43:07;;;;;;;;;0.00;0.00;;;;;;;;4718943;30;28526;-95
2022/11/16 03:45:32;;;;;;;;;0.00;0.00;;;;;;;;4718824;30;28415;-94
2022/11/16 03:47:59;;;;;;;;;0.00;0.00;;;;;;;;4719266;30;28519;-94
2022/11/16 03:50:25;;;;;;;;;0.00;0.00;;;;;;;;4718338;30;31174;-94
2022/11/16 03:52:50;;;;;;;;;0.00;0.00;;;;;;;;4718818;30;28447;-93
2022/11/16 03:55:15;;;;;;;;;0.00;0.00;;;;;;;;4729593;30;28571;-93
2022/11/16 03:57:40;;;;;;;;;0.00;0.00;;;;;;;;4736345;30;28525;-94
2022/11/16 04:00:06;;;;;;;;;0.00;0.00;;;;;;;;4736619;30;30032;-93
2022/11/16 04:02:31;;;;;;;;;0.00;0.00;;;;;;;;4736284;30;28575;-94
2022/11/16 04:24:13;;;;;;;;;0.00;0.00;;;;;;;;4734155;30;28407;-93
2022/11/16 04:29:23;;;;;;;;;0.00;0.00;;;;;;;;4751831;30;28496;-93
2022/11/16 04:40:01;;;;;;;;;0.00;0.00;;;;;;;;4751622;30;28580;-94
2022/11/16 04:42:26;;;;;;;;;0.00;0.00;;;;;;;;4735569;30;30090;-93
2022/11/16 04:47:35;;;;;;;;;0.00;0.00;;;;;;;;4751912;30;28456;-92
2022/11/16 04:50:00;;;;;;;;;0.00;0.00;;;;;;;;4731562;30;28694;-93
2022/11/16 04:52:25;;;;;;;;;0.00;0.00;;;;;;;;4717701;30;29992;-93
2022/11/16 04:54:51;;;;;;;;;0.00;0.00;;;;;;;;4717515;30;28614;-93
2022/11/16 04:57:16;;;;;;;;;0.00;0.00;;;;;;;;4717636;30;28337;-93
2022/11/16 04:59:41;;;;;;;;;0.00;0.00;;;;;;;;4717669;30;27860;-93
2022/11/16 05:02:09;;;;;;;;;0.00;0.00;;;;;;;;4717578;30;30024;-92
2022/11/16 05:04:35;;;;;;;;;0.00;0.00;;;;;;;;4717288;30;29092;-93
2022/11/16 05:07:00;;;;;;;;;0.00;0.00;;;;;;;;4717697;30;28348;-93
2022/11/16 05:09:26;;;;;;;;;0.00;0.00;;;;;;;;4726600;30;27948;-93
2022/11/16 05:11:51;;;;;;;;;0.00;0.00;;;;;;;;4734492;30;30435;-92
2022/11/16 05:14:16;;;;;;;;;0.00;0.00;;;;;;;;4751039;30;28485;-93
2022/11/16 05:16:41;;;;;;;;;0.00;0.00;;;;;;;;4735328;30;28452;-93
2022/11/16 05:21:51;;;;;;;;;0.00;0.00;;;;;;;;4751331;30;28391;-94
2022/11/16 05:24:34;;;;;;;;;0.00;0.00;;;;;;;;4755537;30;28431;-92
2022/11/16 05:27:00;;;;;;;;;0.00;0.00;;;;;;;;4739044;30;27964;-94
2022/11/16 05:29:25;;;;;;;;;0.00;0.00;;;;;;;;4718330;30;28471;-94
2022/11/16 05:31:50;;;;;;;;;0.00;0.00;;;;;;;;4732493;30;29653;-92
2022/11/16 05:34:15;;;;;;;;;0.00;0.00;;;;;;;;4739714;30;28506;-93
2022/11/16 05:36:40;;;;;;;;;0.00;0.00;;;;;;;;4742091;30;28013;-93
2022/11/16 05:39:06;;;;;;;;;0.00;0.00;;;;;;;;4740994;30;28387;-93
2022/11/16 05:41:31;;;;;;;;;0.00;0.00;;;;;;;;4735418;30;30230;-94
2022/11/16 05:43:56;;;;;;;;;0.00;0.00;;;;;;;;4735328;30;28673;-94
2022/11/16 05:46:22;;;;;;;;;0.00;0.00;;;;;;;;4726948;30;28606;-94
2022/11/16 05:48:47;;;;;;;;;0.00;0.00;;;;;;;;4732217;30;27913;-94
2022/11/16 05:51:12;;;;;;;;;0.00;0.00;;;;;;;;4717352;30;29637;-93
2022/11/16 05:53:38;;;;;;;;;0.00;0.00;;;;;;;;4717749;30;28843;-93
2022/11/16 05:56:03;;;;;;;;;0.00;0.00;;;;;;;;4733370;30;28597;-94
2022/11/16 05:58:28;;;;;;;;;0.00;0.00;;;;;;;;4732504;30;28464;-94
2022/11/16 06:00:53;;;;;;;;;0.00;0.00;;;;;;;;4733269;30;28592;-93
2022/11/16 06:03:18;;;;;;;;;0.00;0.00;;;;;;;;4731889;30;28423;-94
2022/11/16 06:05:44;;;;;;;;;0.00;0.00;;;;;;;;4731465;30;28397;-93
2022/11/16 06:08:09;;;;;;;;;0.00;0.00;;;;;;;;4732101;30;28449;-94
2022/11/16 06:10:35;;;;;;;;;0.00;0.00;;;;;;;;4731548;30;29949;-93
2022/11/16 06:13:00;;;;;;;;;0.00;0.00;;;;;;;;4733049;30;28499;-94
2022/11/16 06:15:26;;;;;;;;;0.00;0.00;;;;;;;;4732135;30;28450;-93
2022/11/16 06:17:51;;;;;;;;;0.00;0.00;;;;;;;;4734205;30;28430;-94
2022/11/16 06:20:16;;;;;;;;;0.00;0.00;;;;;;;;4734271;30;31060;-92
2022/11/16 06:22:41;;;;;;;;;0.00;0.00;;;;;;;;4718797;30;28644;-94
2022/11/16 06:25:07;;;;;;;;;0.00;0.00;;;;;;;;4719485;30;28378;-93
2022/11/16 06:27:32;;;;;;;;;0.00;0.00;;;;;;;;4731873;30;28558;-94
2022/11/16 06:29:57;;;;;;;;;0.00;0.00;;;;;;;;4731519;30;30169;-93
2022/11/16 06:32:22;;;;;;;;;0.00;0.00;;;;;;;;4731933;30;28903;-93
2022/11/16 06:34:47;;;;;;;;;0.00;0.00;;;;;;;;4740800;30;28272;-93
2022/11/16 06:37:13;;;;;;;;;0.00;0.00;;;;;;;;4749339;30;27846;-95
2022/11/16 06:39:38;;;;;;;;;0.00;0.00;;;;;;;;4725016;30;30062;-94
2022/11/16 06:42:03;;;;;;;;;0.00;0.00;;;;;;;;4721765;30;29645;-90
2022/11/16 06:44:28;;;;;;;;;0.00;0.00;;;;;;;;4717026;30;28397;-91
2022/11/16 06:46:53;;;;;;;;;0.00;0.00;;;;;;;;4736436;30;28420;-88
2022/11/16 06:49:19;;;;;;;;;0.00;0.00;;;;;;;;4736910;30;30201;-92
2022/11/16 06:51:44;;;;;;;;;0.00;0.00;;;;;;;;4739684;30;28553;-93
2022/11/16 06:54:09;;;;;;;;;0.00;0.00;;;;;;;;4748607;29;28442;-91
2022/11/16 06:56:34;;;;;;;;;0.00;0.00;;;;;;;;4732888;30;28458;-92
2022/11/16 06:58:59;;;;;;;;;0.00;0.00;;;;;;;;4732636;30;30132;-91
2022/11/16 07:01:24;;;;;;;;;0.00;0.00;;;;;;;;4748636;30;28462;-91
2022/11/16 07:03:50;;;;;;;;;0.00;0.00;;;;;;;;4749179;30;28457;-92
2022/11/16 07:06:15;;;;;;;;;0.00;0.00;;;;;;;;4748602;30;28483;-92
2022/11/16 07:08:40;;;;;;;;;0.00;0.00;;;;;;;;4732407;30;30187;-92
2022/11/16 07:11:06;;;;;;;;;0.00;0.00;;;;;;;;4732966;30;28900;-92
2022/11/16 07:13:32;;;;;;;;;0.00;0.00;;;;;;;;4748782;30;28664;-92
2022/11/16 07:16:02;;;;;;;;;0.00;0.00;;;;;;;;4732315;30;28524;-92
2022/11/16 07:18:27;;;;;;;;;0.00;0.00;;;;;;;;4732704;30;30227;-92
2022/11/16 07:20:52;;;;;;;;;0.00;0.00;;;;;;;;4732075;30;28595;-92
2022/11/16 07:23:18;;;;;;;;;0.00;0.00;;;;;;;;4733061;30;28539;-92
2022/11/16 07:25:45;;;;;;;;;0.00;0.00;;;;;;;;4748144;30;28456;-86
2022/11/16 07:28:10;;;;;;;;;0.00;0.00;;;;;;;;4731131;30;30891;-87
2022/11/16 07:30:36;;;;;;;;;0.00;0.00;;;;;;;;4747368;30;28494;-87
2022/11/16 07:33:01;;;;;;;;;0.00;0.00;;;;;;;;4747945;30;28402;-87
2022/11/16 07:35:26;;;;;;;;;0.00;0.00;;;;;;;;4746877;30;28468;-87
2022/11/16 07:37:51;;;;;;;;;0.00;0.00;;;;;;;;4747315;30;28548;-85
2022/11/16 07:40:16;;;;;;;;;0.00;0.00;;;;;;;;4730924;30;30046;-87
2022/11/16 07:42:43;;;;;;;;;0.00;0.00;;;;;;;;4730779;30;28987;-87
2022/11/16 07:45:08;;;;;;;;;0.00;0.00;;;;;;;;4743648;30;28460;-87
2022/11/16 07:47:34;;;;;;;;;0.00;0.00;;;;;;;;4734580;30;29182;-87
2022/11/16 07:49:59;;;;;;;;;0.00;0.00;;;;;;;;4727407;30;28480;-87
2022/11/16 07:52:25;;;;;;;;;0.00;0.00;;;;;;;;4728571;30;28403;-87
2022/11/16 07:54:50;;;;;;;;;0.00;0.00;;;;;;;;4729584;30;28482;-87
2022/11/16 07:57:15;;;;;;;;;0.00;0.00;;;;;;;;4746027;30;28488;-87
2022/11/16 07:59:40;;;;;;;;;0.00;0.00;;;;;;;;4750498;30;28201;-86
2022/11/16 08:02:05;;;;;;;;;0.00;0.00;;;;;;;;4747350;30;28675;-87
2022/11/16 08:04:30;;;;;;;;;0.00;0.00;;;;;;;;4739698;30;28403;-88
2022/11/16 08:06:56;;;;;;;;;0.00;0.00;;;;;;;;4719667;30;30336;-89
2022/11/16 08:09:21;;;;;;;;;0.00;0.00;;;;;;;;4725441;30;29838;-86
2022/11/16 08:11:46;;;;;;;;;0.00;0.00;;;;;;;;4725436;30;27903;-86
2022/11/16 08:14:11;;;;;;;;;0.00;0.00;;;;;;;;4733695;30;28363;-86
2022/11/16 08:16:36;;;;;;;;;0.00;0.00;;;;;;;;4732331;30;29501;-87
2022/11/16 08:19:02;;;;;;;;;0.00;0.00;;;;;;;;4716327;30;29733;-87
2022/11/16 08:21:27;;;;;;;;;0.00;0.00;;;;;;;;4721337;30;28324;-84
2022/11/16 08:23:52;;;;;;;;;0.00;0.00;;;;;;;;4736151;30;28549;-84
2022/11/16 08:26:18;;;;;;;;;0.00;0.00;;;;;;;;4731653;30;28825;-84
2022/11/16 08:28:44;;;;;;;;;0.00;0.00;;;;;;;;4716127;30;28523;-84
2022/11/16 08:31:14;;;;;;;;;0.00;0.00;;;;;;;;4736218;30;28580;-84
2022/11/16 08:33:39;;;;;;;;;0.00;0.00;;;;;;;;4715164;30;28759;-83
2022/11/16 08:36:06;;;;;;;;;0.00;0.00;;;;;;;;4730905;30;29349;-84
2022/11/16 08:38:31;;;;;;;;;0.00;0.00;;;;;;;;4718234;30;29956;-84
2022/11/16 08:40:56;;;;;;;;;0.00;0.00;;;;;;;;4715425;30;28525;-84
2022/11/16 08:43:21;;;;;;;;;0.00;0.00;;;;;;;;4742121;30;28530;-84
2022/11/16 08:45:47;;;;;;;;;0.00;0.00;;;;;;;;4732630;30;28992;-85
2022/11/16 08:48:12;;;;;;;;;0.00;0.00;;;;;;;;4744809;30;28478;-84
2022/11/16 08:50:37;;;;;;;;;0.00;0.00;;;;;;;;4733561;30;28541;-88
2022/11/16 08:53:02;;;;;;;;;0.00;0.00;;;;;;;;4730842;30;28514;-87
2022/11/16 08:55:28;;;;;;;;;0.00;0.00;;;;;;;;4729374;30;28628;-84
2022/11/16 08:57:54;;;;;;;;;0.00;0.00;;;;;;;;4714692;30;45503;-84
2022/11/16 09:00:19;;;;;;;;;0.00;0.00;;;;;;;;4731386;30;28505;-84
2022/11/16 09:02:44;;;;;;;;;0.00;0.00;;;;;;;;4725651;30;28706;-84
2022/11/16 09:05:10;;;;;;;;;0.00;0.00;;;;;;;;4729256;30;30276;-85
2022/11/16 09:07:36;;;;;;;;;0.00;0.00;;;;;;;;4711325;30;39162;-84
2022/11/16 09:10:01;;;;;;;;;0.00;0.00;;;;;;;;4716895;30;45511;-84
2022/11/16 09:12:27;;;;;;;;;0.00;0.00;;;;;;;;4741299;30;45471;-84
2022/11/16 09:14:52;;;;;;;;;0.00;0.00;;;;;;;;4727245;30;45454;-84
2022/11/16 09:17:17;;;;;;;;;0.00;0.00;;;;;;;;4709087;30;45396;-84
2022/11/16 09:19:42;;;;;;;;;0.00;0.00;;;;;;;;4719466;30;46015;-84
2022/11/16 09:22:07;;;;;;;;;0.00;0.00;;;;;;;;4724639;30;45459;-84
2022/11/16 09:24:33;;;;;;;;;0.00;0.00;;;;;;;;4719650;30;46604;-84
2022/11/16 09:27:00;;;;;;;;;0.00;0.00;;;;;;;;4709789;30;45553;-83
2022/11/16 09:29:26;;;;;;;;;0.00;0.00;;;;;;;;4710863;30;45580;-84
2022/11/16 09:31:51;;;;;;;;;0.00;0.00;;;;;;;;4717655;30;45618;-87
2022/11/16 09:34:16;;;;;;;;;0.00;0.00;;;;;;;;4704700;30;46931;-87
2022/11/16 09:36:42;;;;;;;;;0.00;0.00;;;;;;;;4700194;30;45416;-87
2022/11/16 09:39:07;;;;;;;;;0.00;0.00;;;;;;;;4718412;30;45348;-88
2022/11/16 09:41:38;;;;;;;;;0.00;0.00;;;;;;;;4733615;30;45535;-85
2022/11/16 09:44:22;;;;;;;;;0.00;0.00;;;;;;;;4738475;30;8842;-84
2022/11/16 09:46:48;;;;;;;;;0.00;0.00;;;;;;;;4751877;30;11578;-86
2022/11/16 09:49:17;;;;;;;;;0.00;0.00;;;;;;;;4750626;30;11796;-85
2022/11/16 09:51:44;;;;;;;;;0.00;0.00;;;;;;;;4743883;30;11582;-85
2022/11/16 09:54:12;;;;;;;;;0.00;0.00;;;;;;;;4753684;30;11586;-86
2022/11/16 09:56:40;;;;;;;;;0.00;0.00;;;;;;;;4738124;30;11579;-87
2022/11/16 09:59:14;;;;;;;;;0.00;0.00;;;;;;;;4735567;30;11576;-87
2022/11/16 10:01:51;;;;;;;;;0.00;0.00;;;;;;;;4758558;30;11586;-87
2022/11/16 10:04:19;;;;;;;;;0.00;0.00;;;;;;;;4739577;30;12382;-87
2022/11/16 10:06:47;;;;;;;;;0.00;0.00;;;;;;;;4738984;30;8846;-88
2022/11/16 10:09:13;;;;;;;;;0.00;0.00;;;;;;;;4734653;30;11582;-87
2022/11/16 10:11:50;;;;;;;;;0.00;0.00;;;;;;;;4755928;30;9680;-86
2022/11/16 10:14:15;;;;;;;;;0.00;0.00;;;;;;;;4741772;30;14737;-87
2022/11/16 10:16:52;;;;;;;;;0.00;0.00;;;;;;;;4753877;30;11595;-87
2022/11/16 10:19:20;;;;;;;;;0.00;0.00;;;;;;;;4722422;30;11242;-87
2022/11/16 10:21:54;;;;;;;;;0.00;0.00;;;;;;;;4743132;30;11708;-87
2022/11/16 10:24:46;;;;;;;;;0.00;0.00;;;;;;;;4723849;30;27870;-87
2022/11/16 10:27:20;;;;;;;;;0.00;0.00;;;;;;;;4734735;30;28378;-86
2022/11/16 10:30:04;;;;;;;;;0.00;0.00;;;;;;;;4724759;30;10567;-87
2022/11/16 10:32:31;;;;;;;;;0.00;0.00;;;;;;;;4734702;30;11740;-88
2022/11/16 10:35:08;;;;;;;;;0.00;0.00;;;;;;;;4719065;30;16991;-88
2022/11/16 10:37:35;;;;;;;;;0.00;0.00;;;;;;;;4719048;30;11722;-87
2022/11/16 10:40:08;;;;;;;;;0.00;0.00;;;;;;;;4734735;30;11700;-89
2022/11/16 10:42:35;;;;;;;;;0.00;0.00;;;;;;;;4722780;30;18690;-86
2022/11/16 10:45:07;;;;;;;;;0.00;0.00;;;;;;;;4724963;30;11735;-89
2022/11/16 10:47:48;;;;;;;;;0.00;0.00;;;;;;;;4721765;30;26732;-85
2022/11/16 10:50:32;;;;;;;;;0.00;0.00;;;;;;;;4695199;30;28487;-88
2022/11/16 10:52:58;;;;;;;;;0.00;0.00;;;;;;;;4721876;30;28499;-86
2022/11/16 10:55:23;;;;;;;;;0.00;0.00;;;;;;;;4704122;30;30038;-88
2022/11/16 10:57:58;;;;;;;;;0.00;0.00;;;;;;;;4715700;30;29052;-87
2022/11/16 11:00:32;;;;;;;;;0.00;0.00;;;;;;;;4715568;30;9005;-87
2022/11/16 11:02:57;;;;;;;;;0.00;0.00;;;;;;;;4721444;30;28548;-87
2022/11/16 11:05:24;;;;;;;;;0.00;0.00;;;;;;;;4721191;30;28412;-88
2022/11/16 11:07:50;;;;;;;;;0.00;0.00;;;;;;;;4727249;30;28532;-89
2022/11/16 11:10:24;;;;;;;;;0.00;0.00;;;;;;;;4727338;30;28140;-87
2022/11/16 11:13:03;;;;;;;;;0.00;0.00;;;;;;;;4728201;30;28407;-86
2022/11/16 11:15:28;;;;;;;;;0.00;0.00;;;;;;;;4705900;30;31421;-88
2022/11/16 11:18:09;;;;;;;;;0.00;0.00;;;;;;;;4709153;30;28869;-86
2022/11/16 11:20:34;;;;;;;;;0.00;0.00;;;;;;;;4718928;30;28573;-89
2022/11/16 11:23:11;;;;;;;;;0.00;0.00;;;;;;;;4718678;30;28490;-88
2022/11/16 11:25:40;;;;;;;;;0.00;0.00;;;;;;;;4714066;30;30146;-89
2022/11/16 11:28:15;;;;;;;;;0.00;0.00;;;;;;;;4724942;30;28664;-90
2022/11/16 11:30:50;;;;;;;;;0.00;0.00;;;;;;;;4727172;30;28956;-94
2022/11/16 11:33:16;;;;;;;;;0.00;0.00;;;;;;;;4721106;30;28649;-89
2022/11/16 11:35:42;;;;;;;;;0.00;0.00;;;;;;;;4717616;30;29854;-92
2022/11/16 11:38:13;;;;;;;;;0.00;0.00;;;;;;;;4752127;30;28549;-86
2022/11/16 11:40:40;;;;;;;;;0.00;0.00;;;;;;;;4723923;30;28577;-88
2022/11/16 11:43:19;;;;;;;;;0.00;0.00;;;;;;;;4738531;30;28161;-90
2022/11/16 11:45:51;;;;;;;;;0.00;0.00;;;;;;;;4731806;30;30165;-92
2022/11/16 11:48:34;;;;;;;;;0.00;0.00;;;;;;;;4736766;30;27852;-91
2022/11/16 11:51:03;;;;;;;;;0.00;0.00;;;;;;;;4726318;30;27899;-90
2022/11/16 11:53:38;;;;;;;;;0.00;0.00;;;;;;;;4731995;30;28617;-90
2022/11/16 11:56:03;;;;;;;;;0.00;0.00;;;;;;;;4755376;30;11730;-90
2022/11/16 11:58:30;;;;;;;;;0.00;0.00;;;;;;;;4721152;30;28974;-91
2022/11/16 12:00:58;;;;;;;;;0.00;0.00;;;;;;;;4717966;30;28456;-90
2022/11/16 12:03:23;;;;;;;;;0.00;0.00;;;;;;;;4738470;30;28606;-90
2022/11/16 12:06:18;;;;;;;;;0.00;0.00;;;;;;;;4736055;30;28074;-91
2022/11/16 12:08:46;;;;;;;;;0.00;0.00;;;;;;;;4723253;30;10328;-92
2022/11/16 12:11:19;;;;;;;;;0.00;0.00;;;;;;;;4740459;30;11580;-90
2022/11/16 12:13:45;;;;;;;;;0.00;0.00;;;;;;;;4753851;30;11568;-89
2022/11/16 12:16:16;;;;;;;;;0.00;0.00;;;;;;;;4737759;30;11620;-90
2022/11/16 12:18:47;;;;;;;;;0.00;0.00;;;;;;;;4758096;30;11764;-91
2022/11/16 12:21:13;;;;;;;;;0.00;0.00;;;;;;;;4737827;30;11604;-91
2022/11/16 12:23:51;;;;;;;;;0.00;0.00;;;;;;;;4745881;30;8787;-91
2022/11/16 12:26:36;;;;;;;;;0.00;0.00;;;;;;;;4747460;30;11694;-90
2022/11/16 12:29:25;;;;;;;;;0.00;0.00;;;;;;;;4746577;30;8798;-89
2022/11/16 12:32:11;;;;;;;;;0.00;0.00;;;;;;;;4749432;30;11569;-92
2022/11/16 12:34:36;;;;;;;;;0.00;0.00;;;;;;;;4747208;30;12074;-88
2022/11/16 12:37:06;;;;;;;;;0.00;0.00;;;;;;;;4748878;30;11623;-90
2022/11/16 12:39:33;;;;;;;;;0.00;0.00;;;;;;;;4740681;30;10347;-89
2022/11/16 12:42:08;;;;;;;;;0.00;0.00;;;;;;;;4752263;30;12599;-89
2022/11/16 12:44:33;;;;;;;;;0.00;0.00;;;;;;;;4738007;30;11606;-91
2022/11/16 12:47:01;;;;;;;;;0.00;0.00;;;;;;;;4742748;30;11631;-91
2022/11/16 12:49:45;;;;;;;;;0.00;0.00;;;;;;;;4771540;30;9976;-90
2022/11/16 12:52:10;;;;;;;;;0.00;0.00;;;;;;;;4749633;30;11566;-90
2022/11/16 12:54:54;;;;;;;;;0.00;0.00;;;;;;;;4756376;30;11653;-90
2022/11/16 12:57:22;;;;;;;;;0.00;0.00;;;;;;;;4753191;30;10418;-91
2022/11/16 13:00:10;;;;;;;;;0.00;0.00;;;;;;;;4744489;30;11582;-91
2022/11/16 13:02:42;;;;;;;;;0.00;0.00;;;;;;;;4729551;30;8844;-91
2022/11/16 13:05:13;;;;;;;;;0.00;0.00;;;;;;;;4742651;30;11610;-90
2022/11/16 13:07:47;;;;;;;;;0.00;0.00;;;;;;;;4740839;30;11572;-90
2022/11/16 13:10:18;;;;;;;;;0.00;0.00;;;;;;;;4744627;30;12324;-91
2022/11/16 13:12:46;;;;;;;;;0.00;0.00;;;;;;;;4763524;30;11896;-90
2022/11/16 13:15:17;;;;;;;;;0.00;0.00;;;;;;;;4748432;30;11696;-91
2022/11/16 13:17:47;;;;;;;;;0.00;0.00;;;;;;;;4738634;30;11592;-90
2022/11/16 13:20:15;;;;;;;;;0.00;0.00;;;;;;;;4737122;30;8875;-90
2022/11/16 13:22:45;;;;;;;;;0.00;0.00;;;;;;;;4749910;30;11703;-88
2022/11/16 13:25:19;;;;;;;;;0.00;0.00;;;;;;;;4744024;30;8846;-90
2022/11/16 13:28:11;;;;;;;;;0.00;0.00;;;;;;;;4763870;30;8856;-90
2022/11/16 13:30:54;;;;;;;;;0.00;0.00;;;;;;;;4744131;30;11570;-90
2022/11/16 13:33:36;;;;;;;;;0.00;0.00;;;;;;;;4758134;30;11714;-89
2022/11/16 13:36:20;;;;;;;;;0.00;0.00;;;;;;;;4742447;30;11606;-90
2022/11/16 13:38:52;;;;;;;;;0.00;0.00;;;;;;;;4747907;30;11595;-90
2022/11/16 13:41:29;;;;;;;;;0.00;0.00;;;;;;;;4759569;30;11568;-90
2022/11/16 13:43:54;;;;;;;;;0.00;0.00;;;;;;;;4747500;30;11594;-91
2022/11/16 13:46:20;;;;;;;;;0.00;0.00;;;;;;;;4760363;30;11590;-90
2022/11/16 13:48:45;;;;;;;;;0.00;0.00;;;;;;;;4746135;30;8848;-90
2022/11/16 13:51:17;;;;;;;;;0.00;0.00;;;;;;;;4744523;30;8862;-89
2022/11/16 13:53:47;;;;;;;;;0.00;0.00;;;;;;;;4755182;30;8953;-90
2022/11/16 13:56:14;;;;;;;;;0.00;0.00;;;;;;;;4740052;30;12468;-89
2022/11/16 13:58:44;;;;;;;;;0.00;0.00;;;;;;;;4738837;30;11586;-89
2022/11/16 14:01:13;;;;;;;;;0.00;0.00;;;;;;;;4760525;30;11634;-92
2022/11/16 14:03:39;;;;;;;;;0.00;0.00;;;;;;;;4741775;30;11638;-89
2022/11/16 14:06:06;;;;;;;;;0.00;0.00;;;;;;;;4758224;30;8923;-90
2022/11/16 14:08:32;;;;;;;;;0.00;0.00;;;;;;;;4737838;30;9037;-90
2022/11/16 14:10:58;;;;;;;;;0.00;0.00;;;;;;;;4757845;30;8951;-90
2022/11/16 14:13:38;;;;;;;;;0.00;0.00;;;;;;;;4746109;30;11586;-89
2022/11/16 14:16:16;;;;;;;;;0.00;0.00;;;;;;;;4757143;30;9638;-89
2022/11/16 14:18:41;;;;;;;;;0.00;0.00;;;;;;;;4741498;30;11808;-89
2022/11/16 14:21:12;;;;;;;;;0.00;0.00;;;;;;;;4755768;30;11703;-89
2022/11/16 14:23:45;;;;;;;;;0.00;0.00;;;;;;;;4743771;30;38390;-89
2022/11/16 14:26:10;;;;;;;;;0.00;0.00;;;;;;;;4744904;30;12126;-89
2022/11/16 14:28:54;;;;;;;;;0.00;0.00;;;;;;;;4738935;30;11626;-89
2022/11/16 14:31:24;;;;;;;;;0.00;0.00;;;;;;;;4760781;30;11479;-89
2022/11/16 14:33:54;;;;;;;;;0.00;0.00;;;;;;;;4755751;30;24911;-89
2022/11/16 14:36:34;;;;;;;;;0.00;0.00;;;;;;;;4755182;30;26808;-89
2022/11/16 14:39:13;;;;;;;;;0.00;0.00;;;;;;;;4735704;30;11598;-90
2022/11/16 14:41:42;;;;;;;;;0.00;0.00;;;;;;;;4722332;30;44737;-89
2022/11/16 14:44:08;;;;;;;;;0.00;0.00;;;;;;;;4731703;30;26636;-89
2022/11/16 14:46:35;;;;;;;;;0.00;0.00;;;;;;;;4728857;30;27826;-89
2022/11/16 14:49:01;;;;;;;;;0.00;0.00;;;;;;;;4725798;30;31221;-88
2022/11/16 14:51:30;;;;;;;;;0.00;0.00;;;;;;;;4723268;30;45452;-89
2022/11/16 14:53:58;;;;;;;;;0.00;0.00;;;;;;;;4757353;30;20243;-90
2022/11/16 14:56:23;;;;;;;;;0.00;0.00;;;;;;;;4742797;30;40652;-90
2022/11/16 14:58:51;;;;;;;;;0.00;0.00;;;;;;;;4745269;30;42222;-90
2022/11/16 15:01:18;;;;;;;;;0.00;0.00;;;;;;;;4720003;30;29020;-91
2022/11/16 15:04:01;;;;;;;;;0.00;0.00;;;;;;;;4722382;30;28600;-90
2022/11/16 15:06:26;;;;;;;;;0.00;0.00;;;;;;;;4741778;30;28522;-90
2022/11/16 15:08:56;;;;;;;;;0.00;0.00;;;;;;;;4739237;30;29467;-91
2022/11/16 15:12:40;;;;;;;;;0.00;0.00;;;;;;;;4727741;30;42461;-92
2022/11/16 15:14:14;;;;;;;;;0.00;0.00;;;;;;;;4739961;30;27905;-91
2022/11/16 15:16:47;;;;;;;;;0.00;0.00;;;;;;;;4724934;30;27970;-90
2022/11/16 15:19:12;;;;;;;;;0.00;0.00;;;;;;;;4720979;30;29758;-92
2022/11/16 15:21:37;;;;;;;;;0.00;0.00;;;;;;;;4730283;30;28579;-92
2022/11/16 15:24:03;;;;;;;;;0.00;0.00;;;;;;;;4722933;30;28438;-91
2022/11/16 15:26:28;;;;;;;;;0.00;0.00;;;;;;;;4745510;30;28385;-91
2022/11/16 15:28:54;;;;;;;;;0.00;0.00;;;;;;;;4721491;30;30953;-91